sensor_id;sensor_type;location;lat;lon;timestamp;pressure;altitude;pressure_sealevel;temperature;humidity
20023;BME280;10172;42.054;24.546;2022-09-12T00:02:20;97786.88;;;18.58;100.00
20023;BME280;10172;42.054;24.546;2022-09-12T00:04:46;97795.38;;;17.87;100.00
20023;BME280;10172;42.054;24.546;2022-09-12T00:07:11;97788.59;;;18.17;100.00
20023;BME280;10172;42.054;24.546;2022-09-12T00:09:37;97787.25;;;18.13;100.00
20023;BME280;10172;42.054;24.546;2022-09-12T00:12:03;97797.59;;;18.42;100.00
20023;BME280;10172;42.054;24.546;2022-09-12T00:14:28;97801.03;;;18.60;100.00
20023;BME280;10172;42.054;24.546;2022-09-12T00:16:57;97805.78;;;19.31;100.00
20023;BME280;10172;42.054;24.546;2022-09-12T00:19:23;97805.78;;;18.82;100.00
20023;BME280;10172;42.054;24.546;2022-09-12T00:21:49;97805.75;;;18.74;100.00
20023;BME280;10172;42.054;24.546;2022-09-12T00:24:14;97807.97;;;18.79;100.00
20023;BME280;10172;42.054;24.546;2022-09-12T00:26:39;97795.63;;;18.52;100.00
20023;BME280;10172;42.054;24.546;2022-09-12T00:29:05;97797.16;;;18.63;100.00
20023;BME280;10172;42.054;24.546;2022-09-12T00:31:31;97799.03;;;18.70;100.00
20023;BME280;10172;42.054;24.546;2022-09-12T00:33:58;97803.25;;;18.23;100.00
20023;BME280;10172;42.054;24.546;2022-09-12T00:36:25;97806.28;;;18.70;100.00
20023;BME280;10172;42.054;24.546;2022-09-12T00:38:51;97797.28;;;18.03;100.00
20023;BME280;10172;42.054;24.546;2022-09-12T00:41:26;97792.00;;;17.85;100.00
20023;BME280;10172;42.054;24.546;2022-09-12T00:43:58;97792.81;;;17.78;100.00
20023;BME280;10172;42.054;24.546;2022-09-12T00:47:09;97796.03;;;18.31;100.00
20023;BME280;10172;42.054;24.546;2022-09-12T00:51:48;97790.25;;;17.76;100.00
20023;BME280;10172;42.054;24.546;2022-09-12T00:54:19;97778.47;;;17.69;100.00
20023;BME280;10172;42.054;24.546;2022-09-12T00:56:49;97775.31;;;18.16;100.00
20023;BME280;10172;42.054;24.546;2022-09-12T00:59:28;97771.06;;;17.71;100.00
20023;BME280;10172;42.054;24.546;2022-09-12T01:01:56;97776.41;;;17.97;100.00
20023;BME280;10172;42.054;24.546;2022-09-12T01:04:23;97774.34;;;17.57;100.00
20023;BME280;10172;42.054;24.546;2022-09-12T01:06:51;97786.13;;;17.90;100.00
20023;BME280;10172;42.054;24.546;2022-09-12T01:09:20;97777.31;;;17.46;100.00
20023;BME280;10172;42.054;24.546;2022-09-12T01:11:47;97782.88;;;17.27;100.00
20023;BME280;10172;42.054;24.546;2022-09-12T01:14:14;97778.78;;;17.41;100.00
20023;BME280;10172;42.054;24.546;2022-09-12T01:16:42;97783.44;;;17.13;100.00
20023;BME280;10172;42.054;24.546;2022-09-12T01:19:18;97774.34;;;17.31;100.00
20023;BME280;10172;42.054;24.546;2022-09-12T01:35:27;97778.66;;;18.18;100.00
20023;BME280;10172;42.054;24.546;2022-09-12T01:43:33;97782.69;;;17.72;100.00
20023;BME280;10172;42.054;24.546;2022-09-12T01:46:22;97772.25;;;17.43;100.00
20023;BME280;10172;42.054;24.546;2022-09-12T01:48:57;97774.28;;;17.23;100.00
20023;BME280;10172;42.054;24.546;2022-09-12T01:53:54;97776.28;;;17.21;100.00
20023;BME280;10172;42.054;24.546;2022-09-12T01:56:27;97782.84;;;17.19;100.00
20023;BME280;10172;42.054;24.546;2022-09-12T01:59:02;97779.50;;;17.25;100.00
20023;BME280;10172;42.054;24.546;2022-09-12T02:01:40;97785.94;;;16.89;100.00
20023;BME280;10172;42.054;24.546;2022-09-12T02:04:21;97787.34;;;16.75;100.00
20023;BME280;10172;42.054;24.546;2022-09-12T02:06:54;97787.97;;;17.12;100.00
20023;BME280;10172;42.054;24.546;2022-09-12T02:09:28;97791.25;;;17.50;100.00
20023;BME280;10172;42.054;24.546;2022-09-12T02:11:58;97788.50;;;17.59;100.00
20023;BME280;10172;42.054;24.546;2022-09-12T02:14:28;97792.53;;;17.63;100.00
20023;BME280;10172;42.054;24.546;2022-09-12T02:17:00;97785.31;;;17.89;100.00
20023;BME280;10172;42.054;24.546;2022-09-12T02:19:33;97789.75;;;18.15;100.00
20023;BME280;10172;42.054;24.546;2022-09-12T02:22:02;97794.41;;;17.97;100.00
20023;BME280;10172;42.054;24.546;2022-09-12T02:24:39;97792.16;;;17.84;100.00
20023;BME280;10172;42.054;24.546;2022-09-12T02:27:29;97792.91;;;17.68;100.00
20023;BME280;10172;42.054;24.546;2022-09-12T02:29:52;97793.81;;;18.11;100.00
20023;BME280;10172;42.054;24.546;2022-09-12T02:40:00;97792.31;;;17.82;100.00
20023;BME280;10172;42.054;24.546;2022-09-12T02:42:26;97791.28;;;17.75;100.00
20023;BME280;10172;42.054;24.546;2022-09-12T02:44:53;97794.69;;;17.34;100.00
20023;BME280;10172;42.054;24.546;2022-09-12T02:47:56;97793.34;;;17.30;100.00
20023;BME280;10172;42.054;24.546;2022-09-12T02:50:22;97798.09;;;17.44;100.00
20023;BME280;10172;42.054;24.546;2022-09-12T02:52:50;97796.66;;;17.75;100.00
20023;BME280;10172;42.054;24.546;2022-09-12T02:55:18;97789.84;;;17.63;100.00
20023;BME280;10172;42.054;24.546;2022-09-12T02:57:43;97788.19;;;17.62;100.00
20023;BME280;10172;42.054;24.546;2022-09-12T03:00:09;97791.50;;;17.56;100.00
20023;BME280;10172;42.054;24.546;2022-09-12T03:08:11;97760.00;;;17.23;100.00
20023;BME280;10172;42.054;24.546;2022-09-12T03:10:56;97770.75;;;17.23;100.00
20023;BME280;10172;42.054;24.546;2022-09-12T03:16:32;97780.34;;;17.00;100.00
20023;BME280;10172;42.054;24.546;2022-09-12T03:24:42;97777.97;;;16.79;100.00
20023;BME280;10172;42.054;24.546;2022-09-12T03:27:16;97777.34;;;17.03;100.00
20023;BME280;10172;42.054;24.546;2022-09-12T03:29:44;97776.66;;;16.65;100.00
20023;BME280;10172;42.054;24.546;2022-09-12T03:32:12;97776.47;;;16.49;100.00
20023;BME280;10172;42.054;24.546;2022-09-12T03:34:38;97784.53;;;16.32;100.00
20023;BME280;10172;42.054;24.546;2022-09-12T03:37:03;97773.38;;;16.54;100.00
20023;BME280;10172;42.054;24.546;2022-09-12T03:39:29;97778.88;;;17.05;100.00
20023;BME280;10172;42.054;24.546;2022-09-12T03:41:54;97791.06;;;17.00;100.00
20023;BME280;10172;42.054;24.546;2022-09-12T03:44:20;97785.25;;;16.87;100.00
20023;BME280;10172;42.054;24.546;2022-09-12T03:46:45;97800.06;;;17.08;100.00
20023;BME280;10172;42.054;24.546;2022-09-12T03:49:11;97802.66;;;16.83;100.00
20023;BME280;10172;42.054;24.546;2022-09-12T03:51:37;97795.88;;;16.70;100.00
20023;BME280;10172;42.054;24.546;2022-09-12T03:54:03;97795.00;;;17.05;100.00
20023;BME280;10172;42.054;24.546;2022-09-12T03:56:28;97798.34;;;16.90;100.00
20023;BME280;10172;42.054;24.546;2022-09-12T03:58:54;97800.78;;;17.18;100.00
20023;BME280;10172;42.054;24.546;2022-09-12T04:01:20;97812.47;;;17.09;100.00
20023;BME280;10172;42.054;24.546;2022-09-12T04:03:48;97807.63;;;16.42;100.00
20023;BME280;10172;42.054;24.546;2022-09-12T04:06:16;97803.91;;;16.53;100.00
20023;BME280;10172;42.054;24.546;2022-09-12T04:08:42;97807.53;;;16.52;100.00
20023;BME280;10172;42.054;24.546;2022-09-12T04:11:13;97811.75;;;16.37;100.00
20023;BME280;10172;42.054;24.546;2022-09-12T04:13:40;97817.69;;;16.58;100.00
20023;BME280;10172;42.054;24.546;2022-09-12T04:16:06;97812.19;;;16.77;100.00
20023;BME280;10172;42.054;24.546;2022-09-12T04:18:32;97813.78;;;16.88;100.00
20023;BME280;10172;42.054;24.546;2022-09-12T04:21:01;97810.47;;;17.11;100.00
20023;BME280;10172;42.054;24.546;2022-09-12T04:23:27;97815.47;;;16.71;100.00
20023;BME280;10172;42.054;24.546;2022-09-12T04:25:54;97806.94;;;16.13;100.00
20023;BME280;10172;42.054;24.546;2022-09-12T04:28:20;97806.38;;;16.19;100.00
20023;BME280;10172;42.054;24.546;2022-09-12T04:30:46;97812.97;;;16.42;100.00
20023;BME280;10172;42.054;24.546;2022-09-12T04:33:11;97828.53;;;16.84;100.00
20023;BME280;10172;42.054;24.546;2022-09-12T04:35:36;97825.22;;;16.90;100.00
20023;BME280;10172;42.054;24.546;2022-09-12T04:38:02;97830.31;;;17.36;100.00
20023;BME280;10172;42.054;24.546;2022-09-12T04:40:30;97830.84;;;17.14;100.00
20023;BME280;10172;42.054;24.546;2022-09-12T04:42:56;97839.22;;;17.11;100.00
20023;BME280;10172;42.054;24.546;2022-09-12T04:45:21;97838.50;;;17.09;100.00
20023;BME280;10172;42.054;24.546;2022-09-12T04:47:47;97845.03;;;17.06;100.00
20023;BME280;10172;42.054;24.546;2022-09-12T04:50:13;97842.94;;;17.18;100.00
20023;BME280;10172;42.054;24.546;2022-09-12T04:52:42;97836.53;;;17.37;100.00
20023;BME280;10172;42.054;24.546;2022-09-12T04:55:08;97851.44;;;17.74;100.00
20023;BME280;10172;42.054;24.546;2022-09-12T04:57:34;97847.34;;;17.62;100.00
20023;BME280;10172;42.054;24.546;2022-09-12T05:00:00;97849.56;;;17.67;100.00
20023;BME280;10172;42.054;24.546;2022-09-12T05:02:26;97850.97;;;17.79;100.00
20023;BME280;10172;42.054;24.546;2022-09-12T05:04:51;97862.09;;;18.10;100.00
20023;BME280;10172;42.054;24.546;2022-09-12T05:07:18;97852.56;;;18.57;100.00
20023;BME280;10172;42.054;24.546;2022-09-12T05:09:44;97853.25;;;17.91;100.00
20023;BME280;10172;42.054;24.546;2022-09-12T05:12:10;97849.69;;;17.65;100.00
20023;BME280;10172;42.054;24.546;2022-09-12T05:14:35;97859.53;;;17.74;100.00
20023;BME280;10172;42.054;24.546;2022-09-12T05:17:01;97857.81;;;17.73;100.00
20023;BME280;10172;42.054;24.546;2022-09-12T05:19:28;97856.28;;;17.97;100.00
20023;BME280;10172;42.054;24.546;2022-09-12T05:21:54;97854.72;;;17.60;100.00
20023;BME280;10172;42.054;24.546;2022-09-12T05:24:20;97853.16;;;17.75;100.00
20023;BME280;10172;42.054;24.546;2022-09-12T05:26:46;97843.75;;;17.79;100.00
20023;BME280;10172;42.054;24.546;2022-09-12T05:29:12;97852.56;;;18.23;100.00
20023;BME280;10172;42.054;24.546;2022-09-12T05:31:37;97852.03;;;18.20;100.00
20023;BME280;10172;42.054;24.546;2022-09-12T05:34:03;97856.97;;;18.32;100.00
20023;BME280;10172;42.054;24.546;2022-09-12T05:36:32;97865.66;;;18.60;100.00
20023;BME280;10172;42.054;24.546;2022-09-12T05:38:58;97860.19;;;18.86;100.00
20023;BME280;10172;42.054;24.546;2022-09-12T05:41:26;97853.72;;;18.63;100.00
20023;BME280;10172;42.054;24.546;2022-09-12T05:44:01;97855.97;;;18.83;100.00
20023;BME280;10172;42.054;24.546;2022-09-12T05:46:34;97860.34;;;18.92;100.00
20023;BME280;10172;42.054;24.546;2022-09-12T05:49:05;97867.72;;;18.74;100.00
20023;BME280;10172;42.054;24.546;2022-09-12T05:51:33;97857.00;;;18.90;100.00
20023;BME280;10172;42.054;24.546;2022-09-12T05:54:00;97858.31;;;18.78;100.00
20023;BME280;10172;42.054;24.546;2022-09-12T05:56:27;97849.69;;;18.59;100.00
20023;BME280;10172;42.054;24.546;2022-09-12T05:58:58;97854.22;;;18.58;100.00
20023;BME280;10172;42.054;24.546;2022-09-12T06:01:25;97853.31;;;19.16;100.00
20023;BME280;10172;42.054;24.546;2022-09-12T06:03:53;97860.72;;;19.05;100.00
20023;BME280;10172;42.054;24.546;2022-09-12T06:06:21;97854.81;;;18.94;100.00
20023;BME280;10172;42.054;24.546;2022-09-12T06:08:48;97850.97;;;19.29;100.00
20023;BME280;10172;42.054;24.546;2022-09-12T06:11:17;97860.75;;;19.22;100.00
20023;BME280;10172;42.054;24.546;2022-09-12T06:13:43;97849.94;;;19.05;100.00
20023;BME280;10172;42.054;24.546;2022-09-12T06:16:11;97852.31;;;19.65;100.00
20023;BME280;10172;42.054;24.546;2022-09-12T06:18:38;97854.50;;;19.78;100.00
20023;BME280;10172;42.054;24.546;2022-09-12T06:21:06;97862.78;;;19.52;100.00
20023;BME280;10172;42.054;24.546;2022-09-12T06:23:31;97862.44;;;19.55;100.00
20023;BME280;10172;42.054;24.546;2022-09-12T06:25:57;97856.66;;;19.82;100.00
20023;BME280;10172;42.054;24.546;2022-09-12T06:28:23;97856.09;;;20.11;100.00
20023;BME280;10172;42.054;24.546;2022-09-12T06:30:49;97861.94;;;19.67;100.00
20023;BME280;10172;42.054;24.546;2022-09-12T06:33:15;97861.09;;;19.27;100.00
20023;BME280;10172;42.054;24.546;2022-09-12T06:35:41;97868.50;;;19.33;100.00
20023;BME280;10172;42.054;24.546;2022-09-12T06:38:06;97872.72;;;19.35;100.00
20023;BME280;10172;42.054;24.546;2022-09-12T06:40:32;97871.09;;;20.21;100.00
20023;BME280;10172;42.054;24.546;2022-09-12T06:42:58;97871.69;;;20.48;100.00
20023;BME280;10172;42.054;24.546;2022-09-12T06:45:23;97867.91;;;20.10;100.00
20023;BME280;10172;42.054;24.546;2022-09-12T06:47:50;97877.81;;;20.34;100.00
20023;BME280;10172;42.054;24.546;2022-09-12T06:50:16;97883.38;;;20.40;92.99
20023;BME280;10172;42.054;24.546;2022-09-12T06:52:41;97877.72;;;20.03;87.18
20023;BME280;10172;42.054;24.546;2022-09-12T06:55:08;97877.16;;;20.32;85.33
20023;BME280;10172;42.054;24.546;2022-09-12T06:57:37;97890.41;;;19.94;85.05
20023;BME280;10172;42.054;24.546;2022-09-12T07:00:06;97885.25;;;20.23;85.05
20023;BME280;10172;42.054;24.546;2022-09-12T07:02:31;97888.19;;;20.06;85.17
20023;BME280;10172;42.054;24.546;2022-09-12T07:04:57;97887.69;;;20.49;85.27
20023;BME280;10172;42.054;24.546;2022-09-12T07:07:22;97875.69;;;20.60;86.29
20023;BME280;10172;42.054;24.546;2022-09-12T07:09:48;97883.41;;;20.32;82.69
20023;BME280;10172;42.054;24.546;2022-09-12T07:12:14;97880.16;;;20.37;83.53
20023;BME280;10172;42.054;24.546;2022-09-12T07:14:39;97874.00;;;20.59;85.16
20023;BME280;10172;42.054;24.546;2022-09-12T07:17:05;97871.50;;;20.80;84.47
20023;BME280;10172;42.054;24.546;2022-09-12T07:19:31;97874.25;;;20.72;82.79
20023;BME280;10172;42.054;24.546;2022-09-12T07:21:57;97882.34;;;20.41;83.93
20023;BME280;10172;42.054;24.546;2022-09-12T07:24:22;97878.44;;;20.52;81.33
20023;BME280;10172;42.054;24.546;2022-09-12T07:26:48;97874.88;;;20.51;81.21
20023;BME280;10172;42.054;24.546;2022-09-12T07:29:15;97879.38;;;20.98;81.94
20023;BME280;10172;42.054;24.546;2022-09-12T07:31:40;97877.91;;;20.56;77.42
20023;BME280;10172;42.054;24.546;2022-09-12T07:34:06;97873.56;;;20.78;78.28
20023;BME280;10172;42.054;24.546;2022-09-12T07:36:32;97876.72;;;20.90;77.03
20023;BME280;10172;42.054;24.546;2022-09-12T07:38:58;97880.50;;;21.03;77.07
20023;BME280;10172;42.054;24.546;2022-09-12T07:41:26;97865.41;;;20.86;75.71
20023;BME280;10172;42.054;24.546;2022-09-12T07:43:53;97868.81;;;20.80;74.08
20023;BME280;10172;42.054;24.546;2022-09-12T07:46:19;97862.81;;;20.70;76.66
20023;BME280;10172;42.054;24.546;2022-09-12T07:48:50;97871.41;;;20.96;75.01
20023;BME280;10172;42.054;24.546;2022-09-12T07:51:16;97867.56;;;20.91;73.14
20023;BME280;10172;42.054;24.546;2022-09-12T07:53:41;97869.50;;;21.35;74.16
20023;BME280;10172;42.054;24.546;2022-09-12T07:56:11;97853.69;;;21.24;69.85
20023;BME280;10172;42.054;24.546;2022-09-12T07:58:38;97865.06;;;20.89;73.15
20023;BME280;10172;42.054;24.546;2022-09-12T08:01:22;97872.56;;;21.32;73.80
20023;BME280;10172;42.054;24.546;2022-09-12T08:03:52;97852.19;;;21.22;71.30
20023;BME280;10172;42.054;24.546;2022-09-12T08:06:19;97843.28;;;21.73;71.50
20023;BME280;10172;42.054;24.546;2022-09-12T08:08:46;97856.09;;;21.19;70.10
20023;BME280;10172;42.054;24.546;2022-09-12T08:11:14;97837.00;;;21.73;69.66
20023;BME280;10172;42.054;24.546;2022-09-12T08:13:40;97847.13;;;21.79;69.38
20023;BME280;10172;42.054;24.546;2022-09-12T08:16:09;97837.28;;;22.00;70.43
20023;BME280;10172;42.054;24.546;2022-09-12T08:18:36;97827.75;;;21.82;69.18
20023;BME280;10172;42.054;24.546;2022-09-12T08:21:26;97844.22;;;21.80;68.21
20023;BME280;10172;42.054;24.546;2022-09-12T08:23:57;97842.13;;;22.05;67.38
20023;BME280;10172;42.054;24.546;2022-09-12T08:26:25;97837.38;;;21.70;67.12
20023;BME280;10172;42.054;24.546;2022-09-12T08:28:50;97847.06;;;22.01;68.26
20023;BME280;10172;42.054;24.546;2022-09-12T08:31:17;97845.56;;;22.28;68.17
20023;BME280;10172;42.054;24.546;2022-09-12T08:33:43;97830.63;;;22.03;67.26
20023;BME280;10172;42.054;24.546;2022-09-12T08:36:13;97841.56;;;21.95;69.11
20023;BME280;10172;42.054;24.546;2022-09-12T08:38:42;97839.31;;;22.13;69.30
20023;BME280;10172;42.054;24.546;2022-09-12T08:51:49;97824.84;;;21.54;68.05
20023;BME280;10172;42.054;24.546;2022-09-12T08:54:24;97814.63;;;22.37;67.73
20023;BME280;10172;42.054;24.546;2022-09-12T08:56:56;97833.25;;;22.11;68.16
20023;BME280;10172;42.054;24.546;2022-09-12T08:59:22;97837.91;;;22.02;67.46
20023;BME280;10172;42.054;24.546;2022-09-12T09:01:54;97842.00;;;22.57;64.65
20023;BME280;10172;42.054;24.546;2022-09-12T09:13:23;97828.94;;;23.60;59.17
20023;BME280;10172;42.054;24.546;2022-09-12T09:18:38;97827.66;;;22.78;62.28
20023;BME280;10172;42.054;24.546;2022-09-12T09:21:24;97820.06;;;23.09;61.96
20023;BME280;10172;42.054;24.546;2022-09-12T09:23:56;97815.59;;;23.22;59.37
20023;BME280;10172;42.054;24.546;2022-09-12T09:26:32;97817.09;;;23.67;57.56
20023;BME280;10172;42.054;24.546;2022-09-12T09:29:05;97808.44;;;23.57;60.06
20023;BME280;10172;42.054;24.546;2022-09-12T09:31:37;97816.41;;;23.93;59.55
20023;BME280;10172;42.054;24.546;2022-09-12T09:34:18;97817.94;;;24.02;58.91
20023;BME280;10172;42.054;24.546;2022-09-12T09:36:48;97803.50;;;23.67;57.57
20023;BME280;10172;42.054;24.546;2022-09-12T09:44:22;97798.25;;;23.94;59.71
20023;BME280;10172;42.054;24.546;2022-09-12T09:46:53;97798.06;;;23.67;59.63
20023;BME280;10172;42.054;24.546;2022-09-12T09:49:18;97812.38;;;23.34;61.97
20023;BME280;10172;42.054;24.546;2022-09-12T09:51:45;97807.78;;;22.41;64.56
20023;BME280;10172;42.054;24.546;2022-09-12T09:56:41;97812.34;;;23.06;61.94
20023;BME280;10172;42.054;24.546;2022-09-12T09:59:16;97807.53;;;23.50;60.31
20023;BME280;10172;42.054;24.546;2022-09-12T10:02:18;97804.75;;;23.99;56.81
20023;BME280;10172;42.054;24.546;2022-09-12T10:04:57;97798.25;;;24.28;55.01
20023;BME280;10172;42.054;24.546;2022-09-12T10:07:24;97809.41;;;24.39;55.52
20023;BME280;10172;42.054;24.546;2022-09-12T10:10:22;97811.13;;;23.78;59.45
20023;BME280;10172;42.054;24.546;2022-09-12T10:12:48;97809.81;;;23.74;57.65
20023;BME280;10172;42.054;24.546;2022-09-12T10:15:21;97800.34;;;23.92;59.80
20023;BME280;10172;42.054;24.546;2022-09-12T10:17:48;97802.78;;;24.55;58.01
20023;BME280;10172;42.054;24.546;2022-09-12T10:22:56;97785.06;;;24.18;57.04
20023;BME280;10172;42.054;24.546;2022-09-12T10:25:24;97801.38;;;23.63;57.91
20023;BME280;10172;42.054;24.546;2022-09-12T10:27:55;97797.84;;;23.41;57.63
20023;BME280;10172;42.054;24.546;2022-09-12T10:30:23;97786.31;;;23.88;58.31
20023;BME280;10172;42.054;24.546;2022-09-12T10:32:55;97783.81;;;24.21;55.47
20023;BME280;10172;42.054;24.546;2022-09-12T10:35:28;97793.13;;;24.46;56.40
20023;BME280;10172;42.054;24.546;2022-09-12T10:38:06;97794.75;;;23.44;57.39
20023;BME280;10172;42.054;24.546;2022-09-12T10:40:41;97785.41;;;24.09;55.88
20023;BME280;10172;42.054;24.546;2022-09-12T10:45:41;97789.75;;;24.44;53.38
20023;BME280;10172;42.054;24.546;2022-09-12T10:48:30;97790.28;;;24.67;52.32
20023;BME280;10172;42.054;24.546;2022-09-12T10:50:57;97781.00;;;24.08;53.54
20023;BME280;10172;42.054;24.546;2022-09-12T10:53:25;97766.78;;;24.06;54.53
20023;BME280;10172;42.054;24.546;2022-09-12T10:58:27;97771.47;;;23.91;56.16
20023;BME280;10172;42.054;24.546;2022-09-12T11:09:41;97781.94;;;24.28;54.06
20023;BME280;10172;42.054;24.546;2022-09-12T11:12:40;97773.34;;;24.65;54.88
20023;BME280;10172;42.054;24.546;2022-09-12T11:15:22;97774.47;;;25.04;52.55
20023;BME280;10172;42.054;24.546;2022-09-12T11:23:31;97764.22;;;24.32;55.10
20023;BME280;10172;42.054;24.546;2022-09-12T11:29:08;97755.88;;;25.14;53.99
20023;BME280;10172;42.054;24.546;2022-09-12T11:40:47;97763.88;;;23.79;58.39
20023;BME280;10172;42.054;24.546;2022-09-12T11:44:21;97757.34;;;23.67;58.53
20023;BME280;10172;42.054;24.546;2022-09-12T11:46:35;97754.09;;;24.13;57.22
20023;BME280;10172;42.054;24.546;2022-09-12T12:01:59;97743.81;;;24.08;51.65
20023;BME280;10172;42.054;24.546;2022-09-12T12:07:14;97743.66;;;24.16;51.29
20023;BME280;10172;42.054;24.546;2022-09-12T12:09:48;97738.06;;;24.31;52.83
20023;BME280;10172;42.054;24.546;2022-09-12T12:12:19;97736.97;;;24.19;52.48
20023;BME280;10172;42.054;24.546;2022-09-12T12:14:48;97733.13;;;24.54;52.94
20023;BME280;10172;42.054;24.546;2022-09-12T12:17:19;97726.53;;;24.22;53.73
20023;BME280;10172;42.054;24.546;2022-09-12T12:19:55;97722.25;;;24.07;53.21
20023;BME280;10172;42.054;24.546;2022-09-12T12:22:22;97716.22;;;24.65;51.94
20023;BME280;10172;42.054;24.546;2022-09-12T12:38:01;97710.44;;;25.34;48.55
20023;BME280;10172;42.054;24.546;2022-09-12T12:40:29;97708.53;;;24.88;49.78
20023;BME280;10172;42.054;24.546;2022-09-12T12:47:52;97712.09;;;24.95;49.23
20023;BME280;10172;42.054;24.546;2022-09-12T12:50:22;97716.91;;;25.39;48.81
20023;BME280;10172;42.054;24.546;2022-09-12T12:53:02;97712.94;;;25.55;47.50
20023;BME280;10172;42.054;24.546;2022-09-12T12:55:45;97710.72;;;26.09;46.40
20023;BME280;10172;42.054;24.546;2022-09-12T12:58:34;97703.38;;;26.03;46.51
20023;BME280;10172;42.054;24.546;2022-09-12T13:03:40;97701.72;;;26.02;46.67
20023;BME280;10172;42.054;24.546;2022-09-12T13:06:21;97718.41;;;25.62;48.52
20023;BME280;10172;42.054;24.546;2022-09-12T13:08:58;97700.25;;;26.06;48.42
20023;BME280;10172;42.054;24.546;2022-09-12T13:14:01;97696.63;;;26.63;45.34
20023;BME280;10172;42.054;24.546;2022-09-12T13:16:30;97703.81;;;26.58;46.43
20023;BME280;10172;42.054;24.546;2022-09-12T13:18:56;97698.09;;;26.28;46.81
20023;BME280;10172;42.054;24.546;2022-09-12T13:21:26;97698.31;;;26.20;48.06
20023;BME280;10172;42.054;24.546;2022-09-12T13:24:00;97693.06;;;25.15;50.74
20023;BME280;10172;42.054;24.546;2022-09-12T13:26:27;97698.69;;;24.87;51.07
20023;BME280;10172;42.054;24.546;2022-09-12T13:29:28;97695.78;;;25.48;49.51
20023;BME280;10172;42.054;24.546;2022-09-12T13:31:55;97693.00;;;25.74;49.56
20023;BME280;10172;42.054;24.546;2022-09-12T13:34:28;97690.09;;;25.69;48.97
20023;BME280;10172;42.054;24.546;2022-09-12T13:39:46;97703.47;;;26.41;48.33
20023;BME280;10172;42.054;24.546;2022-09-12T13:44:57;97714.06;;;26.25;47.01
20023;BME280;10172;42.054;24.546;2022-09-12T13:47:30;97707.38;;;26.01;46.21
20023;BME280;10172;42.054;24.546;2022-09-12T13:49:57;97710.88;;;25.57;48.67
20023;BME280;10172;42.054;24.546;2022-09-12T13:52:32;97712.53;;;25.06;49.49
20023;BME280;10172;42.054;24.546;2022-09-12T13:55:00;97703.53;;;25.12;50.71
20023;BME280;10172;42.054;24.546;2022-09-12T13:57:30;97704.56;;;25.76;49.10
20023;BME280;10172;42.054;24.546;2022-09-12T13:59:58;97702.91;;;25.23;49.41
20023;BME280;10172;42.054;24.546;2022-09-12T14:02:26;97703.06;;;25.74;48.52
20023;BME280;10172;42.054;24.546;2022-09-12T14:04:53;97690.50;;;25.66;48.91
20023;BME280;10172;42.054;24.546;2022-09-12T14:07:39;97703.75;;;25.56;49.84
20023;BME280;10172;42.054;24.546;2022-09-12T14:10:15;97694.53;;;25.05;52.15
20023;BME280;10172;42.054;24.546;2022-09-12T14:12:44;97697.66;;;25.02;52.98
20023;BME280;10172;42.054;24.546;2022-09-12T14:15:17;97705.69;;;24.43;54.96
20023;BME280;10172;42.054;24.546;2022-09-12T14:17:48;97702.38;;;24.60;54.88
20023;BME280;10172;42.054;24.546;2022-09-12T14:20:16;97694.53;;;25.05;53.20
20023;BME280;10172;42.054;24.546;2022-09-12T14:22:43;97689.03;;;25.44;50.52
20023;BME280;10172;42.054;24.546;2022-09-12T14:25:22;97711.47;;;24.80;51.55
20023;BME280;10172;42.054;24.546;2022-09-12T14:27:54;97706.81;;;24.68;52.43
20023;BME280;10172;42.054;24.546;2022-09-12T14:33:24;97710.63;;;24.93;52.01
20023;BME280;10172;42.054;24.546;2022-09-12T14:35:51;97720.06;;;25.04;52.48
20023;BME280;10172;42.054;24.546;2022-09-12T14:38:35;97726.63;;;24.55;53.13
20023;BME280;10172;42.054;24.546;2022-09-12T14:41:05;97726.31;;;24.84;53.42
20023;BME280;10172;42.054;24.546;2022-09-12T14:43:34;97725.94;;;25.40;51.73
20023;BME280;10172;42.054;24.546;2022-09-12T14:46:17;97738.25;;;24.83;52.65
20023;BME280;10172;42.054;24.546;2022-09-12T14:48:50;97736.69;;;24.61;53.34
20023;BME280;10172;42.054;24.546;2022-09-12T14:51:21;97733.38;;;24.12;54.55
20023;BME280;10172;42.054;24.546;2022-09-12T14:53:48;97734.97;;;24.41;53.72
20023;BME280;10172;42.054;24.546;2022-09-12T14:56:14;97738.63;;;24.20;52.01
20023;BME280;10172;42.054;24.546;2022-09-12T14:58:40;97739.56;;;24.40;52.07
20023;BME280;10172;42.054;24.546;2022-09-12T15:03:47;97743.81;;;24.62;52.82
20023;BME280;10172;42.054;24.546;2022-09-12T15:06:29;97733.44;;;24.85;52.64
20023;BME280;10172;42.054;24.546;2022-09-12T15:08:57;97740.72;;;24.78;52.73
20023;BME280;10172;42.054;24.546;2022-09-12T15:11:23;97738.00;;;24.78;52.59
20023;BME280;10172;42.054;24.546;2022-09-12T15:13:49;97744.75;;;24.89;51.62
20023;BME280;10172;42.054;24.546;2022-09-12T15:16:14;97741.41;;;24.87;52.15
20023;BME280;10172;42.054;24.546;2022-09-12T15:18:40;97747.56;;;24.61;52.86
20023;BME280;10172;42.054;24.546;2022-09-12T15:21:09;97732.69;;;24.51;53.38
20023;BME280;10172;42.054;24.546;2022-09-12T15:26:02;97746.22;;;25.05;51.96
20023;BME280;10172;42.054;24.546;2022-09-12T15:28:29;97746.50;;;24.49;53.31
20023;BME280;10172;42.054;24.546;2022-09-12T15:30:57;97760.59;;;24.72;53.82
20023;BME280;10172;42.054;24.546;2022-09-12T15:33:24;97749.09;;;24.23;54.31
20023;BME280;10172;42.054;24.546;2022-09-12T15:35:51;97749.94;;;24.23;54.13
20023;BME280;10172;42.054;24.546;2022-09-12T15:38:16;97749.28;;;23.80;56.19
20023;BME280;10172;42.054;24.546;2022-09-12T15:40:43;97755.03;;;24.33;54.33
20023;BME280;10172;42.054;24.546;2022-09-12T15:43:11;97749.59;;;24.33;54.46